Hardin, IL (62047)

10:58 PM CST on December 19, 2014 (GMT -0600)
Blue Ridge | Change Station
CLOSE
Current Station
Personal Weather Station
Location: Hardin, IL
Elevation: 748 ft
Nearby Weather Stations

Elev 748 ft 39.15 °N, 90.65 °W | Updated 6 minutes ago

Overcast
Overcast
31.4 °F
Feels Like 31 °F
N
0.0
Wind Variable Wind from ESE
Gusts 2.0 mph

Today
High -- | Low -- °F
--% Chance of Precip.
Yesterday
High -- | Low -- °F
Precip. -- in
7:17 AM 4:42 PM
Waning Crescent, 4% visible
Pressure 30.28 in
Visibility 7.0 miles
Clouds Overcast 5500 ft
Windchill 31 °F
Dew Point 28 °F
Humidity 87%
Rainfall 0.00 in
Snow Depth Not available.
UV 0 out of 12
Pollen .50 out of 12
Air Quality Not available.
Flu Activity Not available.
METAR KSET 200354Z AUTO 09004KT 7SM OVC055 01/M01 A3027 RMK AO2 SLP253 T00111011

More Conditions Fewer Conditions

Pressure 30.28 in
Visibility 7.0 miles
Clouds Overcast 5500 ft
Windchill 31 °F
Dew Point 28 °F
Humidity 87%
Rainfall 0.00 in
Snow Depth Not available.
UV 0 out of 12
Pollen .50 out of 12
Air Quality Not available.
Flu Activity Not available.
METAR KSET 200354Z AUTO 09004KT 7SM OVC055 01/M01 A3027 RMK AO2 SLP253 T00111011

More Conditions Fewer Conditions

10-Day Weather Forecast

Almanac

Astronomy

Dec. 19, 2014 Rise Set
Actual Time
Civil Twilight
Nautical Twilight
Astronomical Twilight
Moon
Length of Visible Light
Length of Day
Tomorrow will be .
, % of the Moon is Illuminated

Today's Extremes

State Highs State Lows

Community

WunderPhotos

Upload Photos

1,779,130 photos uploaded!

WunderBlogs® & News

Nearby

Air Quality

  Air Quality AQ Index Pollutant
Not available.

Snow Depth

Station Depth Elevation

Earthquake Activity

City Distance Mag. Time & Date
Minimum magnitude displayed is 2.5.

Coastal Water Temperatures

Place Temperature

Nearby Weather Stations